sensor_id;sensor_type;location;lat;lon;timestamp;temperature;humidity
3288;DHT22;3260;52.438;13.502;2022-07-15T04:01:36;13.70;1.00
3288;DHT22;3260;52.438;13.502;2022-07-15T04:04:05;13.70;1.00
3288;DHT22;3260;52.438;13.502;2022-07-15T04:06:34;13.80;1.00
3288;DHT22;3260;52.438;13.502;2022-07-15T04:09:03;13.90;1.00
3288;DHT22;3260;52.438;13.502;2022-07-15T04:11:31;13.90;1.00
3288;DHT22;3260;52.438;13.502;2022-07-15T04:16:45;14.00;1.00
3288;DHT22;3260;52.438;13.502;2022-07-15T04:19:14;14.10;1.00
3288;DHT22;3260;52.438;13.502;2022-07-15T04:21:42;14.10;1.00
3288;DHT22;3260;52.438;13.502;2022-07-15T04:24:10;14.10;1.00
3288;DHT22;3260;52.438;13.502;2022-07-15T04:26:38;14.20;1.00
3288;DHT22;3260;52.438;13.502;2022-07-15T04:29:06;14.30;1.00
3288;DHT22;3260;52.438;13.502;2022-07-15T04:31:34;14.40;1.00
3288;DHT22;3260;52.438;13.502;2022-07-15T04:34:04;14.40;1.00
3288;DHT22;3260;52.438;13.502;2022-07-15T04:36:32;14.50;1.00
3288;DHT22;3260;52.438;13.502;2022-07-15T04:39:00;14.50;1.00
3288;DHT22;3260;52.438;13.502;2022-07-15T04:41:28;14.50;1.00
3288;DHT22;3260;52.438;13.502;2022-07-15T04:43:56;14.50;1.00
3288;DHT22;3260;52.438;13.502;2022-07-15T04:46:24;14.50;1.00
3288;DHT22;3260;52.438;13.502;2022-07-15T04:48:53;14.50;1.00
3288;DHT22;3260;52.438;13.502;2022-07-15T04:51:39;14.60;1.00
3288;DHT22;3260;52.438;13.502;2022-07-15T04:54:07;14.60;1.00
3288;DHT22;3260;52.438;13.502;2022-07-15T04:56:36;14.70;1.00
3288;DHT22;3260;52.438;13.502;2022-07-15T04:59:04;14.70;1.00
3288;DHT22;3260;52.438;13.502;2022-07-15T05:01:33;14.80;1.00
3288;DHT22;3260;52.438;13.502;2022-07-15T05:04:01;14.90;1.00
3288;DHT22;3260;52.438;13.502;2022-07-15T05:06:29;15.10;1.00
3288;DHT22;3260;52.438;13.502;2022-07-15T05:08:58;15.20;1.00
3288;DHT22;3260;52.438;13.502;2022-07-15T05:11:26;15.40;1.00
3288;DHT22;3260;52.438;13.502;2022-07-15T05:13:55;15.50;1.00
3288;DHT22;3260;52.438;13.502;2022-07-15T05:16:23;15.50;1.00
3288;DHT22;3260;52.438;13.502;2022-07-15T05:18:51;15.60;1.00
3288;DHT22;3260;52.438;13.502;2022-07-15T05:21:19;15.70;1.00
3288;DHT22;3260;52.438;13.502;2022-07-15T05:23:51;15.80;1.00
3288;DHT22;3260;52.438;13.502;2022-07-15T05:26:41;15.90;1.00
3288;DHT22;3260;52.438;13.502;2022-07-15T05:29:11;16.00;1.00
3288;DHT22;3260;52.438;13.502;2022-07-15T05:31:39;16.00;1.00
3288;DHT22;3260;52.438;13.502;2022-07-15T05:34:07;16.10;1.00
3288;DHT22;3260;52.438;13.502;2022-07-15T05:36:36;16.30;1.00
3288;DHT22;3260;52.438;13.502;2022-07-15T05:39:04;16.30;1.00
3288;DHT22;3260;52.438;13.502;2022-07-15T05:41:32;16.50;1.00
3288;DHT22;3260;52.438;13.502;2022-07-15T05:44:02;16.60;1.00
3288;DHT22;3260;52.438;13.502;2022-07-15T05:46:30;16.60;1.00
3288;DHT22;3260;52.438;13.502;2022-07-15T05:48:58;16.70;1.00
3288;DHT22;3260;52.438;13.502;2022-07-15T05:51:27;16.80;1.00
3288;DHT22;3260;52.438;13.502;2022-07-15T05:53:55;17.00;1.00
3288;DHT22;3260;52.438;13.502;2022-07-15T05:56:23;17.00;1.00
3288;DHT22;3260;52.438;13.502;2022-07-15T05:58:51;17.00;1.00
3288;DHT22;3260;52.438;13.502;2022-07-15T06:01:21;17.00;1.00
3288;DHT22;3260;52.438;13.502;2022-07-15T06:03:50;16.90;1.00
3288;DHT22;3260;52.438;13.502;2022-07-15T06:06:18;17.00;1.00
3288;DHT22;3260;52.438;13.502;2022-07-15T06:08:47;16.90;1.00
3288;DHT22;3260;52.438;13.502;2022-07-15T06:11:15;17.00;1.00
3288;DHT22;3260;52.438;13.502;2022-07-15T06:13:43;17.00;1.00
3288;DHT22;3260;52.438;13.502;2022-07-15T06:16:11;16.80;1.00
3288;DHT22;3260;52.438;13.502;2022-07-15T06:18:41;16.80;1.00
3288;DHT22;3260;52.438;13.502;2022-07-15T06:21:09;16.90;1.00
3288;DHT22;3260;52.438;13.502;2022-07-15T06:23:38;17.00;1.00
3288;DHT22;3260;52.438;13.502;2022-07-15T06:26:06;17.00;1.00
3288;DHT22;3260;52.438;13.502;2022-07-15T06:28:34;17.10;1.00
3288;DHT22;3260;52.438;13.502;2022-07-15T06:31:02;17.20;1.00
3288;DHT22;3260;52.438;13.502;2022-07-15T06:33:30;17.30;1.00
3288;DHT22;3260;52.438;13.502;2022-07-15T06:36:00;17.30;1.00
3288;DHT22;3260;52.438;13.502;2022-07-15T06:38:31;17.30;1.00
3288;DHT22;3260;52.438;13.502;2022-07-15T06:40:59;17.40;1.00
3288;DHT22;3260;52.438;13.502;2022-07-15T06:43:27;17.60;1.00
3288;DHT22;3260;52.438;13.502;2022-07-15T06:45:55;17.70;1.00
3288;DHT22;3260;52.438;13.502;2022-07-15T06:48:24;17.80;1.00
3288;DHT22;3260;52.438;13.502;2022-07-15T06:50:52;17.80;1.00
3288;DHT22;3260;52.438;13.502;2022-07-15T06:53:21;18.00;1.00
3288;DHT22;3260;52.438;13.502;2022-07-15T06:55:51;18.20;1.00
3288;DHT22;3260;52.438;13.502;2022-07-15T06:58:19;18.20;1.00
3288;DHT22;3260;52.438;13.502;2022-07-15T07:00:47;18.40;1.00
3288;DHT22;3260;52.438;13.502;2022-07-15T07:03:15;18.70;1.00
3288;DHT22;3260;52.438;13.502;2022-07-15T07:06:03;18.90;1.00
3288;DHT22;3260;52.438;13.502;2022-07-15T07:08:34;18.80;1.00
3288;DHT22;3260;52.438;13.502;2022-07-15T07:11:02;18.90;1.00
3288;DHT22;3260;52.438;13.502;2022-07-15T07:13:31;18.80;1.00
3288;DHT22;3260;52.438;13.502;2022-07-15T07:15:59;18.90;1.00
3288;DHT22;3260;52.438;13.502;2022-07-15T07:18:28;19.00;1.00
3288;DHT22;3260;52.438;13.502;2022-07-15T07:20:56;19.10;1.00
3288;DHT22;3260;52.438;13.502;2022-07-15T07:23:25;19.00;1.00
3288;DHT22;3260;52.438;13.502;2022-07-15T07:25:55;19.00;1.00
3288;DHT22;3260;52.438;13.502;2022-07-15T07:28:23;19.10;1.00
3288;DHT22;3260;52.438;13.502;2022-07-15T07:30:51;19.20;1.00
3288;DHT22;3260;52.438;13.502;2022-07-15T07:33:22;19.30;1.00
3288;DHT22;3260;52.438;13.502;2022-07-15T07:35:50;19.00;1.00
3288;DHT22;3260;52.438;13.502;2022-07-15T07:38:19;18.90;1.00
3288;DHT22;3260;52.438;13.502;2022-07-15T07:40:48;18.90;1.00
3288;DHT22;3260;52.438;13.502;2022-07-15T07:43:18;19.00;1.00
3288;DHT22;3260;52.438;13.502;2022-07-15T07:45:46;19.10;1.00
3288;DHT22;3260;52.438;13.502;2022-07-15T07:48:15;19.10;1.00
3288;DHT22;3260;52.438;13.502;2022-07-15T07:50:44;19.20;1.00
3288;DHT22;3260;52.438;13.502;2022-07-15T07:53:13;19.10;1.00
3288;DHT22;3260;52.438;13.502;2022-07-15T07:55:41;19.10;1.00
3288;DHT22;3260;52.438;13.502;2022-07-15T07:58:09;19.10;1.00
3288;DHT22;3260;52.438;13.502;2022-07-15T08:00:40;19.10;1.00
3288;DHT22;3260;52.438;13.502;2022-07-15T08:03:08;19.20;1.00
3288;DHT22;3260;52.438;13.502;2022-07-15T08:05:36;19.00;1.00
3288;DHT22;3260;52.438;13.502;2022-07-15T08:08:09;19.00;1.00
3288;DHT22;3260;52.438;13.502;2022-07-15T08:10:40;19.10;1.00
3288;DHT22;3260;52.438;13.502;2022-07-15T08:13:13;19.20;1.00
3288;DHT22;3260;52.438;13.502;2022-07-15T08:15:43;19.20;1.00
3288;DHT22;3260;52.438;13.502;2022-07-15T08:18:14;19.20;1.00
3288;DHT22;3260;52.438;13.502;2022-07-15T08:20:42;19.30;1.00
3288;DHT22;3260;52.438;13.502;2022-07-15T08:23:10;19.30;1.00
3288;DHT22;3260;52.438;13.502;2022-07-15T08:25:39;19.20;1.00
3288;DHT22;3260;52.438;13.502;2022-07-15T08:28:07;19.10;1.00
3288;DHT22;3260;52.438;13.502;2022-07-15T08:30:36;18.90;1.00
3288;DHT22;3260;52.438;13.502;2022-07-15T08:33:05;18.70;1.00
3288;DHT22;3260;52.438;13.502;2022-07-15T08:35:34;18.70;1.00
3288;DHT22;3260;52.438;13.502;2022-07-15T08:38:04;18.70;1.00
3288;DHT22;3260;52.438;13.502;2022-07-15T08:40:34;18.90;1.00
3288;DHT22;3260;52.438;13.502;2022-07-15T08:43:05;19.30;1.00
3288;DHT22;3260;52.438;13.502;2022-07-15T08:45:36;19.40;1.00
3288;DHT22;3260;52.438;13.502;2022-07-15T08:48:07;19.70;1.00
3288;DHT22;3260;52.438;13.502;2022-07-15T08:50:36;20.00;1.00
3288;DHT22;3260;52.438;13.502;2022-07-15T08:53:04;19.90;1.00
3288;DHT22;3260;52.438;13.502;2022-07-15T08:55:33;19.90;1.00
3288;DHT22;3260;52.438;13.502;2022-07-15T08:58:01;19.90;1.00
3288;DHT22;3260;52.438;13.502;2022-07-15T09:00:29;20.00;1.00
3288;DHT22;3260;52.438;13.502;2022-07-15T09:02:58;20.00;1.00
3288;DHT22;3260;52.438;13.502;2022-07-15T09:05:31;19.80;1.00
3288;DHT22;3260;52.438;13.502;2022-07-15T09:08:03;19.90;1.00
3288;DHT22;3260;52.438;13.502;2022-07-15T09:10:45;20.00;1.00
3288;DHT22;3260;52.438;13.502;2022-07-15T09:13:24;20.20;1.00
3288;DHT22;3260;52.438;13.502;2022-07-15T09:15:56;20.40;1.00
3288;DHT22;3260;52.438;13.502;2022-07-15T09:18:27;20.40;1.00
3288;DHT22;3260;52.438;13.502;2022-07-15T09:20:58;20.50;1.00
3288;DHT22;3260;52.438;13.502;2022-07-15T09:23:29;20.70;1.00
3288;DHT22;3260;52.438;13.502;2022-07-15T09:26:00;20.70;1.00
3288;DHT22;3260;52.438;13.502;2022-07-15T09:28:54;20.40;1.00
3288;DHT22;3260;52.438;13.502;2022-07-15T09:31:27;20.20;1.00
3288;DHT22;3260;52.438;13.502;2022-07-15T09:34:18;20.10;1.00
3288;DHT22;3260;52.438;13.502;2022-07-15T09:36:50;20.20;1.00
3288;DHT22;3260;52.438;13.502;2022-07-15T09:39:22;20.20;1.00
3288;DHT22;3260;52.438;13.502;2022-07-15T09:41:52;20.00;1.00
3288;DHT22;3260;52.438;13.502;2022-07-15T09:44:28;20.00;1.00
3288;DHT22;3260;52.438;13.502;2022-07-15T09:46:59;20.20;1.00
3288;DHT22;3260;52.438;13.502;2022-07-15T09:49:34;20.40;1.00
3288;DHT22;3260;52.438;13.502;2022-07-15T09:52:06;20.60;1.00
3288;DHT22;3260;52.438;13.502;2022-07-15T09:54:37;20.40;1.00
3288;DHT22;3260;52.438;13.502;2022-07-15T09:57:09;20.20;1.00
3288;DHT22;3260;52.438;13.502;2022-07-15T09:59:41;20.40;1.00
3288;DHT22;3260;52.438;13.502;2022-07-15T10:02:10;20.70;1.00
3288;DHT22;3260;52.438;13.502;2022-07-15T10:04:39;20.70;1.00
3288;DHT22;3260;52.438;13.502;2022-07-15T10:07:07;20.80;1.00
3288;DHT22;3260;52.438;13.502;2022-07-15T10:09:54;21.20;1.00
3288;DHT22;3260;52.438;13.502;2022-07-15T10:12:42;21.50;1.00
3288;DHT22;3260;52.438;13.502;2022-07-15T10:15:25;21.80;1.00
3288;DHT22;3260;52.438;13.502;2022-07-15T10:18:09;22.00;1.00
3288;DHT22;3260;52.438;13.502;2022-07-15T10:21:00;22.30;1.00
3288;DHT22;3260;52.438;13.502;2022-07-15T10:27:03;21.50;1.00
3288;DHT22;3260;52.438;13.502;2022-07-15T10:29:41;21.00;1.00
3288;DHT22;3260;52.438;13.502;2022-07-15T10:32:10;20.90;1.00
3288;DHT22;3260;52.438;13.502;2022-07-15T10:34:43;20.70;1.00
3288;DHT22;3260;52.438;13.502;2022-07-15T10:37:12;20.70;1.00
3288;DHT22;3260;52.438;13.502;2022-07-15T10:39:52;20.90;1.00
3288;DHT22;3260;52.438;13.502;2022-07-15T10:42:24;21.10;1.00
3288;DHT22;3260;52.438;13.502;2022-07-15T10:45:06;21.50;1.00
3288;DHT22;3260;52.438;13.502;2022-07-15T10:47:35;21.90;1.00
3288;DHT22;3260;52.438;13.502;2022-07-15T10:50:34;22.10;1.00
3288;DHT22;3260;52.438;13.502;2022-07-15T10:53:20;22.30;1.00
3288;DHT22;3260;52.438;13.502;2022-07-15T10:55:51;22.80;1.00
3288;DHT22;3260;52.438;13.502;2022-07-15T10:58:19;23.10;1.00
3288;DHT22;3260;52.438;13.502;2022-07-15T11:00:49;23.30;1.00
3288;DHT22;3260;52.438;13.502;2022-07-15T11:03:20;23.20;1.00
3288;DHT22;3260;52.438;13.502;2022-07-15T11:06:04;22.60;1.00
3288;DHT22;3260;52.438;13.502;2022-07-15T11:09:03;22.00;1.00
3288;DHT22;3260;52.438;13.502;2022-07-15T11:11:50;21.60;1.00
3288;DHT22;3260;52.438;13.502;2022-07-15T11:14:50;21.40;1.00
3288;DHT22;3260;52.438;13.502;2022-07-15T11:17:25;21.30;1.00
3288;DHT22;3260;52.438;13.502;2022-07-15T11:20:07;21.50;1.00
3288;DHT22;3260;52.438;13.502;2022-07-15T11:22:39;21.90;1.00
3288;DHT22;3260;52.438;13.502;2022-07-15T11:25:17;22.20;1.00
3288;DHT22;3260;52.438;13.502;2022-07-15T11:27:57;22.00;1.00
3288;DHT22;3260;52.438;13.502;2022-07-15T11:30:29;21.60;1.00
3288;DHT22;3260;52.438;13.502;2022-07-15T11:33:02;21.30;1.00
3288;DHT22;3260;52.438;13.502;2022-07-15T11:35:43;20.90;1.00
3288;DHT22;3260;52.438;13.502;2022-07-15T11:38:14;20.60;1.00
3288;DHT22;3260;52.438;13.502;2022-07-15T11:40:45;20.60;1.00
3288;DHT22;3260;52.438;13.502;2022-07-15T11:43:33;20.80;1.00
3288;DHT22;3260;52.438;13.502;2022-07-15T11:46:19;21.30;1.00
3288;DHT22;3260;52.438;13.502;2022-07-15T11:48:50;21.80;1.00
3288;DHT22;3260;52.438;13.502;2022-07-15T11:51:24;22.30;1.00
3288;DHT22;3260;52.438;13.502;2022-07-15T11:53:55;22.80;1.00
3288;DHT22;3260;52.438;13.502;2022-07-15T11:56:25;23.50;1.00
3288;DHT22;3260;52.438;13.502;2022-07-15T11:58:55;23.80;1.00
3288;DHT22;3260;52.438;13.502;2022-07-15T12:01:26;24.00;1.00
3288;DHT22;3260;52.438;13.502;2022-07-15T12:03:58;23.80;1.00
3288;DHT22;3260;52.438;13.502;2022-07-15T12:06:29;23.90;1.00
3288;DHT22;3260;52.438;13.502;2022-07-15T12:08:59;23.70;1.00
3288;DHT22;3260;52.438;13.502;2022-07-15T12:11:31;23.50;1.00
3288;DHT22;3260;52.438;13.502;2022-07-15T12:14:03;23.30;1.00
3288;DHT22;3260;52.438;13.502;2022-07-15T12:16:34;23.10;1.00
3288;DHT22;3260;52.438;13.502;2022-07-15T12:19:08;23.10;1.00
3288;DHT22;3260;52.438;13.502;2022-07-15T12:21:38;23.00;1.00
3288;DHT22;3260;52.438;13.502;2022-07-15T12:24:09;23.00;1.00
3288;DHT22;3260;52.438;13.502;2022-07-15T12:26:41;23.10;1.00
3288;DHT22;3260;52.438;13.502;2022-07-15T12:29:11;23.50;1.00
3288;DHT22;3260;52.438;13.502;2022-07-15T12:31:41;23.90;1.00
3288;DHT22;3260;52.438;13.502;2022-07-15T12:34:11;24.30;1.00
3288;DHT22;3260;52.438;13.502;2022-07-15T12:36:40;24.40;1.00
3288;DHT22;3260;52.438;13.502;2022-07-15T12:39:14;24.80;1.00
3288;DHT22;3260;52.438;13.502;2022-07-15T12:41:58;25.30;1.00
3288;DHT22;3260;52.438;13.502;2022-07-15T12:44:30;26.60;1.00
3288;DHT22;3260;52.438;13.502;2022-07-15T12:47:00;27.70;1.00
3288;DHT22;3260;52.438;13.502;2022-07-15T12:52:31;26.30;1.00
3288;DHT22;3260;52.438;13.502;2022-07-15T12:55:13;25.40;1.00
3288;DHT22;3260;52.438;13.502;2022-07-15T12:57:43;24.40;1.00
3288;DHT22;3260;52.438;13.502;2022-07-15T13:00:13;23.60;1.00
3288;DHT22;3260;52.438;13.502;2022-07-15T13:02:57;23.20;1.00
3288;DHT22;3260;52.438;13.502;2022-07-15T13:05:30;22.90;1.00
3288;DHT22;3260;52.438;13.502;2022-07-15T13:08:00;22.80;1.00
3288;DHT22;3260;52.438;13.502;2022-07-15T13:10:30;22.80;1.00
3288;DHT22;3260;52.438;13.502;2022-07-15T13:12:58;22.80;1.00
3288;DHT22;3260;52.438;13.502;2022-07-15T13:15:27;23.00;1.00
3288;DHT22;3260;52.438;13.502;2022-07-15T13:17:55;23.60;1.00
3288;DHT22;3260;52.438;13.502;2022-07-15T13:20:24;24.60;1.00
3288;DHT22;3260;52.438;13.502;2022-07-15T13:22:54;26.30;1.00
3288;DHT22;3260;52.438;13.502;2022-07-15T13:25:23;28.50;1.00
3288;DHT22;3260;52.438;13.502;2022-07-15T13:27:51;30.50;1.00
3288;DHT22;3260;52.438;13.502;2022-07-15T13:30:20;30.00;1.00
3288;DHT22;3260;52.438;13.502;2022-07-15T13:32:49;29.00;1.00
3288;DHT22;3260;52.438;13.502;2022-07-15T13:35:17;28.00;1.00
3288;DHT22;3260;52.438;13.502;2022-07-15T13:37:46;27.00;1.00
3288;DHT22;3260;52.438;13.502;2022-07-15T13:40:15;26.20;1.00
3288;DHT22;3260;52.438;13.502;2022-07-15T13:42:44;25.60;1.00
3288;DHT22;3260;52.438;13.502;2022-07-15T13:45:13;25.40;1.00
3288;DHT22;3260;52.438;13.502;2022-07-15T13:47:42;25.70;1.00
3288;DHT22;3260;52.438;13.502;2022-07-15T13:50:10;26.00;1.00
3288;DHT22;3260;52.438;13.502;2022-07-15T13:52:58;26.50;1.00
3288;DHT22;3260;52.438;13.502;2022-07-15T13:55:29;27.70;1.00
3288;DHT22;3260;52.438;13.502;2022-07-15T13:57:58;28.30;1.00
3288;DHT22;3260;52.438;13.502;2022-07-15T14:00:26;29.00;1.00
3288;DHT22;3260;52.438;13.502;2022-07-15T14:02:55;30.60;1.00
3288;DHT22;3260;52.438;13.502;2022-07-15T14:05:24;31.70;1.00
3288;DHT22;3260;52.438;13.502;2022-07-15T14:07:52;32.50;1.00
3288;DHT22;3260;52.438;13.502;2022-07-15T14:10:22;33.60;1.00
3288;DHT22;3260;52.438;13.502;2022-07-15T14:12:51;34.20;1.00
3288;DHT22;3260;52.438;13.502;2022-07-15T14:15:20;34.50;1.00
3288;DHT22;3260;52.438;13.502;2022-07-15T14:17:53;34.10;1.00
3288;DHT22;3260;52.438;13.502;2022-07-15T14:20:21;32.50;1.00
3288;DHT22;3260;52.438;13.502;2022-07-15T14:22:49;31.20;1.00
3288;DHT22;3260;52.438;13.502;2022-07-15T14:25:18;29.80;1.00
3288;DHT22;3260;52.438;13.502;2022-07-15T14:27:46;28.90;1.00
3288;DHT22;3260;52.438;13.502;2022-07-15T14:30:16;27.80;1.00
3288;DHT22;3260;52.438;13.502;2022-07-15T14:32:45;27.00;1.00
3288;DHT22;3260;52.438;13.502;2022-07-15T14:35:14;26.10;1.00
3288;DHT22;3260;52.438;13.502;2022-07-15T14:37:42;25.20;1.00
3288;DHT22;3260;52.438;13.502;2022-07-15T14:40:10;24.60;1.00
3288;DHT22;3260;52.438;13.502;2022-07-15T14:42:40;24.40;1.00
3288;DHT22;3260;52.438;13.502;2022-07-15T14:45:09;24.00;1.00
3288;DHT22;3260;52.438;13.502;2022-07-15T14:47:39;23.70;1.00
3288;DHT22;3260;52.438;13.502;2022-07-15T14:50:07;23.60;1.00
3288;DHT22;3260;52.438;13.502;2022-07-15T14:52:36;23.80;1.00
3288;DHT22;3260;52.438;13.502;2022-07-15T14:55:05;24.00;1.00
3288;DHT22;3260;52.438;13.502;2022-07-15T14:57:34;24.00;1.00
3288;DHT22;3260;52.438;13.502;2022-07-15T15:00:03;23.90;1.00
3288;DHT22;3260;52.438;13.502;2022-07-15T15:02:32;23.80;1.00
3288;DHT22;3260;52.438;13.502;2022-07-15T15:05:02;23.60;1.00
3288;DHT22;3260;52.438;13.502;2022-07-15T15:07:31;23.60;1.00
3288;DHT22;3260;52.438;13.502;2022-07-15T15:09:59;24.10;1.00
3288;DHT22;3260;52.438;13.502;2022-07-15T15:12:27;25.90;1.00
3288;DHT22;3260;52.438;13.502;2022-07-15T15:14:55;27.90;1.00
3288;DHT22;3260;52.438;13.502;2022-07-15T15:17:23;30.70;1.00
3288;DHT22;3260;52.438;13.502;2022-07-15T15:19:51;32.50;1.00
3288;DHT22;3260;52.438;13.502;2022-07-15T15:22:21;32.40;1.00
3288;DHT22;3260;52.438;13.502;2022-07-15T15:24:49;31.20;1.00
3288;DHT22;3260;52.438;13.502;2022-07-15T15:27:17;29.80;1.00
3288;DHT22;3260;52.438;13.502;2022-07-15T15:29:45;28.60;1.00
3288;DHT22;3260;52.438;13.502;2022-07-15T15:32:13;27.70;1.00
3288;DHT22;3260;52.438;13.502;2022-07-15T15:34:44;26.80;1.00
3288;DHT22;3260;52.438;13.502;2022-07-15T15:37:13;26.20;1.00
3288;DHT22;3260;52.438;13.502;2022-07-15T15:39:43;25.90;1.00
3288;DHT22;3260;52.438;13.502;2022-07-15T15:42:11;25.50;1.00
3288;DHT22;3260;52.438;13.502;2022-07-15T15:44:47;25.20;1.00
3288;DHT22;3260;52.438;13.502;2022-07-15T15:47:15;25.10;1.00
3288;DHT22;3260;52.438;13.502;2022-07-15T15:49:44;24.90;1.00
3288;DHT22;3260;52.438;13.502;2022-07-15T15:52:12;24.60;1.00
3288;DHT22;3260;52.438;13.502;2022-07-15T15:54:43;24.30;1.00
3288;DHT22;3260;52.438;13.502;2022-07-15T15:57:11;23.90;1.00
3288;DHT22;3260;52.438;13.502;2022-07-15T15:59:40;23.90;1.00
3288;DHT22;3260;52.438;13.502;2022-07-15T16:02:08;24.00;1.00
3288;DHT22;3260;52.438;13.502;2022-07-15T16:04:36;24.20;1.00
3288;DHT22;3260;52.438;13.502;2022-07-15T16:07:25;24.50;1.00
3288;DHT22;3260;52.438;13.502;2022-07-15T16:09:54;24.20;1.00
3288;DHT22;3260;52.438;13.502;2022-07-15T16:12:22;24.00;1.00
3288;DHT22;3260;52.438;13.502;2022-07-15T16:17:26;23.80;1.00
3288;DHT22;3260;52.438;13.502;2022-07-15T16:19:55;24.60;1.00
3288;DHT22;3260;52.438;13.502;2022-07-15T16:22:23;26.40;1.00
3288;DHT22;3260;52.438;13.502;2022-07-15T16:25:11;28.00;1.00
3288;DHT22;3260;52.438;13.502;2022-07-15T16:27:39;30.10;1.00
3288;DHT22;3260;52.438;13.502;2022-07-15T16:30:08;29.90;1.00
3288;DHT22;3260;52.438;13.502;2022-07-15T16:32:42;29.10;1.00
3288;DHT22;3260;52.438;13.502;2022-07-15T16:35:10;27.80;1.00
3288;DHT22;3260;52.438;13.502;2022-07-15T16:37:38;27.10;1.00
3288;DHT22;3260;52.438;13.502;2022-07-15T16:40:08;26.60;1.00
3288;DHT22;3260;52.438;13.502;2022-07-15T16:42:38;26.00;1.00
3288;DHT22;3260;52.438;13.502;2022-07-15T16:45:07;25.60;1.00
3288;DHT22;3260;52.438;13.502;2022-07-15T16:47:36;25.50;1.00
3288;DHT22;3260;52.438;13.502;2022-07-15T16:50:04;25.50;1.00
3288;DHT22;3260;52.438;13.502;2022-07-15T16:52:34;26.50;1.00
3288;DHT22;3260;52.438;13.502;2022-07-15T16:55:03;27.20;1.00
3288;DHT22;3260;52.438;13.502;2022-07-15T16:57:33;27.60;1.00
3288;DHT22;3260;52.438;13.502;2022-07-15T17:00:05;28.20;1.00
3288;DHT22;3260;52.438;13.502;2022-07-15T17:02:36;28.50;1.00
3288;DHT22;3260;52.438;13.502;2022-07-15T17:05:05;28.60;1.00
3288;DHT22;3260;52.438;13.502;2022-07-15T17:07:34;27.60;1.00
3288;DHT22;3260;52.438;13.502;2022-07-15T17:10:03;26.80;1.00
3288;DHT22;3260;52.438;13.502;2022-07-15T17:12:31;26.50;1.00
3288;DHT22;3260;52.438;13.502;2022-07-15T17:14:59;26.80;1.00
3288;DHT22;3260;52.438;13.502;2022-07-15T17:17:29;27.30;1.00
3288;DHT22;3260;52.438;13.502;2022-07-15T17:19:57;27.10;1.00
3288;DHT22;3260;52.438;13.502;2022-07-15T17:22:25;26.80;1.00
3288;DHT22;3260;52.438;13.502;2022-07-15T17:24:53;26.40;1.00
3288;DHT22;3260;52.438;13.502;2022-07-15T17:27:21;25.80;1.00
3288;DHT22;3260;52.438;13.502;2022-07-15T17:29:50;25.10;1.00
3288;DHT22;3260;52.438;13.502;2022-07-15T17:32:18;24.20;1.00
3288;DHT22;3260;52.438;13.502;2022-07-15T17:34:47;23.50;1.00
3288;DHT22;3260;52.438;13.502;2022-07-15T17:37:15;23.00;1.00
3288;DHT22;3260;52.438;13.502;2022-07-15T17:39:44;22.70;1.00
3288;DHT22;3260;52.438;13.502;2022-07-15T17:42:12;22.40;1.00
3288;DHT22;3260;52.438;13.502;2022-07-15T17:44:40;22.10;1.00
3288;DHT22;3260;52.438;13.502;2022-07-15T17:47:08;21.90;1.00
3288;DHT22;3260;52.438;13.502;2022-07-15T17:49:36;21.70;1.00
3288;DHT22;3260;52.438;13.502;2022-07-15T17:52:06;21.60;1.00
3288;DHT22;3260;52.438;13.502;2022-07-15T17:54:34;21.60;1.00
3288;DHT22;3260;52.438;13.502;2022-07-15T17:57:02;21.40;1.00
3288;DHT22;3260;52.438;13.502;2022-07-15T17:59:31;21.30;1.00
3288;DHT22;3260;52.438;13.502;2022-07-15T18:02:01;21.30;1.00
3288;DHT22;3260;52.438;13.502;2022-07-15T18:04:29;21.20;1.00
3288;DHT22;3260;52.438;13.502;2022-07-15T18:06:57;21.10;1.00
3288;DHT22;3260;52.438;13.502;2022-07-15T18:09:27;21.10;1.00
3288;DHT22;3260;52.438;13.502;2022-07-15T18:11:55;21.10;1.00
3288;DHT22;3260;52.438;13.502;2022-07-15T18:14:23;21.10;1.00
3288;DHT22;3260;52.438;13.502;2022-07-15T18:16:51;21.10;1.00
3288;DHT22;3260;52.438;13.502;2022-07-15T18:19:20;21.00;1.00
3288;DHT22;3260;52.438;13.502;2022-07-15T18:21:49;20.90;1.00
3288;DHT22;3260;52.438;13.502;2022-07-15T18:24:17;20.80;1.00
3288;DHT22;3260;52.438;13.502;2022-07-15T18:26:46;20.60;1.00
3288;DHT22;3260;52.438;13.502;2022-07-15T18:29:14;20.60;1.00
3288;DHT22;3260;52.438;13.502;2022-07-15T18:31:43;20.50;1.00
3288;DHT22;3260;52.438;13.502;2022-07-15T18:34:11;20.40;1.00
3288;DHT22;3260;52.438;13.502;2022-07-15T18:36:39;20.30;1.00
3288;DHT22;3260;52.438;13.502;2022-07-15T18:39:07;20.20;1.00
3288;DHT22;3260;52.438;13.502;2022-07-15T18:41:35;20.20;1.00
3288;DHT22;3260;52.438;13.502;2022-07-15T18:44:04;20.10;1.00
3288;DHT22;3260;52.438;13.502;2022-07-15T18:46:33;20.00;1.00
3288;DHT22;3260;52.438;13.502;2022-07-15T18:49:01;20.00;1.00
3288;DHT22;3260;52.438;13.502;2022-07-15T18:51:29;19.90;1.00
3288;DHT22;3260;52.438;13.502;2022-07-15T18:53:57;19.80;1.00
3288;DHT22;3260;52.438;13.502;2022-07-15T18:56:25;19.80;1.00
3288;DHT22;3260;52.438;13.502;2022-07-15T18:58:54;19.70;1.00
3288;DHT22;3260;52.438;13.502;2022-07-15T19:01:25;19.60;1.00
3288;DHT22;3260;52.438;13.502;2022-07-15T19:03:53;19.50;1.00
3288;DHT22;3260;52.438;13.502;2022-07-15T19:06:21;19.50;1.00
3288;DHT22;3260;52.438;13.502;2022-07-15T19:08:49;19.50;1.00
3288;DHT22;3260;52.438;13.502;2022-07-15T19:11:18;19.50;1.00
3288;DHT22;3260;52.438;13.502;2022-07-15T19:13:47;19.50;1.00
3288;DHT22;3260;52.438;13.502;2022-07-15T19:16:15;19.50;1.00
3288;DHT22;3260;52.438;13.502;2022-07-15T19:18:46;19.50;1.00
3288;DHT22;3260;52.438;13.502;2022-07-15T19:21:15;19.40;1.00
3288;DHT22;3260;52.438;13.502;2022-07-15T19:23:45;19.40;1.00
3288;DHT22;3260;52.438;13.502;2022-07-15T19:26:13;19.40;1.00
3288;DHT22;3260;52.438;13.502;2022-07-15T19:28:41;19.30;1.00
3288;DHT22;3260;52.438;13.502;2022-07-15T19:31:09;19.20;1.00
3288;DHT22;3260;52.438;13.502;2022-07-15T19:33:37;19.20;1.00
3288;DHT22;3260;52.438;13.502;2022-07-15T19:36:08;19.20;1.00
3288;DHT22;3260;52.438;13.502;2022-07-15T19:38:36;19.10;1.00
3288;DHT22;3260;52.438;13.502;2022-07-15T19:41:04;19.00;1.00
3288;DHT22;3260;52.438;13.502;2022-07-15T19:43:32;19.00;1.00
3288;DHT22;3260;52.438;13.502;2022-07-15T19:46:00;18.90;1.00
3288;DHT22;3260;52.438;13.502;2022-07-15T19:48:29;18.90;1.00
3288;DHT22;3260;52.438;13.502;2022-07-15T19:50:57;18.90;1.00
3288;DHT22;3260;52.438;13.502;2022-07-15T19:53:27;18.80;1.00
3288;DHT22;3260;52.438;13.502;2022-07-15T19:55:55;18.80;1.00
3288;DHT22;3260;52.438;13.502;2022-07-15T19:58:23;18.70;1.00
3288;DHT22;3260;52.438;13.502;2022-07-15T20:00:51;18.70;1.00
3288;DHT22;3260;52.438;13.502;2022-07-15T20:03:20;18.70;1.00
3288;DHT22;3260;52.438;13.502;2022-07-15T20:05:48;18.70;1.00
3288;DHT22;3260;52.438;13.502;2022-07-15T20:08:16;18.60;1.00
3288;DHT22;3260;52.438;13.502;2022-07-15T20:10:45;18.60;1.00
3288;DHT22;3260;52.438;13.502;2022-07-15T20:13:13;18.50;1.00
3288;DHT22;3260;52.438;13.502;2022-07-15T20:15:42;18.40;1.00
3288;DHT22;3260;52.438;13.502;2022-07-15T20:18:10;18.40;1.00
3288;DHT22;3260;52.438;13.502;2022-07-15T20:20:38;18.40;1.00
3288;DHT22;3260;52.438;13.502;2022-07-15T20:23:07;18.40;1.00
3288;DHT22;3260;52.438;13.502;2022-07-15T20:25:35;18.30;1.00
3288;DHT22;3260;52.438;13.502;2022-07-15T20:28:04;18.20;1.00
3288;DHT22;3260;52.438;13.502;2022-07-15T20:30:33;18.20;1.00
3288;DHT22;3260;52.438;13.502;2022-07-15T20:33:01;18.20;1.00
3288;DHT22;3260;52.438;13.502;2022-07-15T20:35:30;18.10;1.00